Time;durP1;ratioP1;P1;durP2;ratioP2;P2;SDS_P1;SDS_P2;PMS_P1;PMS_P2;Temp;Humidity;BMP_temperature;BMP_pressure;BME280_temperature;BME280_humidity;BME280_pressure;Samples;Min_cycle;Max_cycle;Signal;HPM_P1;HPM_P2
2022/08/29 00:01:29;;;;;;;;;;;;;;;-144.99;100.00;52207.59;5002941;28;20451;-73
2022/08/29 00:03:57;;;;;;;;;;;;;;;-144.99;100.00;52207.59;5007753;28;20289;-74
2022/08/29 00:06:24;;;;;;;;;;;;;;;-144.99;100.00;52207.59;5008168;28;19939;-75
2022/08/29 00:08:51;;;;;;;;;;;;;;;-144.99;100.00;52211.66;4995077;28;19930;-73
2022/08/29 00:11:18;;;;;;;;;;;;;;;-144.99;100.00;52223.88;4998721;28;19937;-73
2022/08/29 00:13:45;;;;;;;;;;;;;;;-144.99;100.00;52203.50;5007944;28;19963;-72
2022/08/29 00:16:11;;;;;;;;;;;;;;;-144.99;100.00;52211.66;5013887;28;19929;-73
2022/08/29 00:18:38;;;;;;;;;;;;;;;-144.99;100.00;52223.88;5007989;28;19929;-74
2022/08/29 00:21:05;;;;;;;;;;;;;;;-144.99;100.00;52223.88;5003384;28;19932;-74
2022/08/29 00:23:32;;;;;;;;;;;;;;;-144.99;100.00;52199.44;4993521;28;19936;-74
2022/08/29 00:25:58;;;;;;;;;;;;;;;-144.99;100.00;52236.13;5009962;28;19948;-75
2022/08/29 00:28:26;;;;;;;;;;;;;;;-144.99;100.00;52195.34;4655690;28;9999690;-75
2022/08/29 00:30:52;;;;;;;;;;;;;;;-144.99;100.00;52215.75;5000865;28;19936;-75
2022/08/29 00:33:19;;;;;;;;;;;;;;;-144.99;100.00;52227.97;5000243;28;20020;-74
2022/08/29 00:35:46;;;;;;;;;;;;;;;-144.99;100.00;52264.66;5005535;28;19929;-74
2022/08/29 00:38:15;;;;;;;;;;;;;;;-144.99;100.00;52232.03;5007614;28;20009;-75
2022/08/29 00:40:43;;;;;;;;;;;;;;;-144.99;100.00;52240.19;5005751;28;19925;-76
2022/08/29 00:43:10;;;;;;;;;;;;;;;-144.99;100.00;52223.88;5011185;28;19925;-75
2022/08/29 00:45:39;;;;;;;;;;;;;;;-144.99;100.00;52223.88;5011558;28;19933;-73
2022/08/29 00:48:07;;;;;;;;;;;;;;;-144.99;100.00;52223.88;5009010;28;20028;-75
2022/08/29 00:50:35;;;;;;;;;;;;;;;-144.99;100.00;52195.34;5000912;28;19952;-75
2022/08/29 00:53:02;;;;;;;;;;;;;;;-144.99;100.00;52195.34;4999954;28;19931;-74
2022/08/29 00:55:31;;;;;;;;;;;;;;;-144.99;100.00;52276.88;5010123;28;19925;-74
2022/08/29 00:57:58;;;;;;;;;;;;;;;-144.99;100.00;52223.88;5008665;28;19941;-74
2022/08/29 01:00:26;;;;;;;;;;;;;;;-144.99;100.00;52236.13;4999676;28;19925;-74
2022/08/29 01:02:54;;;;;;;;;;;;;;;-144.99;100.00;52191.28;5010235;28;19932;-74
2022/08/29 01:05:21;;;;;;;;;;;;;;;-144.99;100.00;52227.97;5003442;28;20043;-74
2022/08/29 01:07:47;;;;;;;;;;;;;;;-144.99;100.00;52191.28;5009067;28;19944;-75
2022/08/29 01:12:14;;;;;;;;;;;;;;;-144.99;100.00;52244.28;5007702;28;20029;-75
2022/08/29 01:13:01;;;;;;;;;;;;;;;-144.99;100.00;52232.03;5006633;28;20659;-74
2022/08/29 01:15:29;;;;;;;;;;;;;;;-144.99;100.00;52211.66;5009393;28;19926;-75
2022/08/29 01:17:58;;;;;;;;;;;;;;;-144.99;100.00;52232.03;5006211;28;19930;-76
2022/08/29 01:20:30;;;;;;;;;;;;;;;-144.99;100.00;52211.66;4997940;28;19925;-75
2022/08/29 01:23:00;;;;;;;;;;;;;;;-144.99;100.00;52232.03;5003295;28;19945;-75
2022/08/29 01:25:30;;;;;;;;;;;;;;;-144.99;100.00;52232.03;5010237;28;20390;-74
2022/08/29 01:28:02;;;;;;;;;;;;;;;-144.99;100.00;52207.59;5002605;28;19933;-75
2022/08/29 01:30:29;;;;;;;;;;;;;;;-144.99;100.00;52244.28;5004335;28;19941;-74
2022/08/29 01:32:56;;;;;;;;;;;;;;;-144.99;100.00;52256.50;5001329;28;20018;-73
2022/08/29 01:35:23;;;;;;;;;;;;;;;-144.99;100.00;52223.88;4998881;28;19930;-74
2022/08/29 01:37:49;;;;;;;;;;;;;;;-144.99;100.00;52211.66;5000167;28;19932;-74
2022/08/29 01:40:16;;;;;;;;;;;;;;;-144.99;100.00;52191.28;5006299;28;19932;-73
2022/08/29 01:42:43;;;;;;;;;;;;;;;-144.99;100.00;52223.88;4994986;28;19926;-73
2022/08/29 01:45:10;;;;;;;;;;;;;;;-144.99;100.00;52250.38;5009480;28;19925;-74
2022/08/29 01:47:38;;;;;;;;;;;;;;;-144.99;100.00;52207.59;5010152;28;20424;-74
2022/08/29 01:50:06;;;;;;;;;;;;;;;-144.99;100.00;52242.22;5008471;28;19926;-74
2022/08/29 01:52:32;;;;;;;;;;;;;;;-144.99;100.00;52240.19;4999543;28;19925;-73
2022/08/29 01:54:59;;;;;;;;;;;;;;;-144.99;100.00;52236.13;5008725;28;19926;-75
2022/08/29 01:57:25;;;;;;;;;;;;;;;-144.99;100.00;52240.19;5010427;28;19984;-75
2022/08/29 01:59:53;;;;;;;;;;;;;;;-144.99;100.00;52223.88;5008038;28;19948;-74
2022/08/29 02:02:22;;;;;;;;;;;;;;;-144.99;100.00;52199.44;4999559;28;20315;-75
2022/08/29 02:04:48;;;;;;;;;;;;;;;-144.99;100.00;52205.53;5002815;28;19926;-72
2022/08/29 02:07:16;;;;;;;;;;;;;;;-144.99;100.00;52246.31;5004457;28;19992;-73
2022/08/29 02:09:43;;;;;;;;;;;;;;;-144.99;100.00;52244.28;5009828;28;19987;-73
2022/08/29 02:12:09;;;;;;;;;;;;;;;-144.99;100.00;52219.81;4998903;28;19933;-74
2022/08/29 02:14:36;;;;;;;;;;;;;;;-144.99;100.00;52187.19;5001001;28;19925;-75
2022/08/29 02:17:05;;;;;;;;;;;;;;;-144.99;100.00;52219.81;5009275;28;19925;-74
2022/08/29 02:19:32;;;;;;;;;;;;;;;-144.99;100.00;52232.03;5009101;28;20290;-72
2022/08/29 02:21:59;;;;;;;;;;;;;;;-144.99;100.00;52244.28;5000754;28;20424;-73
2022/08/29 02:24:25;;;;;;;;;;;;;;;-144.99;100.00;52215.75;5005163;28;19948;-73
2022/08/29 02:26:52;;;;;;;;;;;;;;;-144.99;100.00;52223.88;5007564;28;19925;-73
2022/08/29 02:29:18;;;;;;;;;;;;;;;-144.99;100.00;52209.63;5012675;28;19925;-73
2022/08/29 02:31:45;;;;;;;;;;;;;;;-144.99;100.00;52215.75;5006245;28;20498;-74
2022/08/29 02:34:12;;;;;;;;;;;;;;;-144.99;100.00;52232.03;4998302;28;19925;-74
2022/08/29 02:36:39;;;;;;;;;;;;;;;-144.99;100.00;52183.13;5012454;28;19948;-73
2022/08/29 02:39:05;;;;;;;;;;;;;;;-144.99;100.00;52215.75;5008885;28;19929;-73
2022/08/29 02:41:32;;;;;;;;;;;;;;;-144.99;100.00;52227.97;5007165;28;19931;-73
2022/08/29 02:43:58;;;;;;;;;;;;;;;-144.99;100.00;52219.81;5000998;28;19932;-73
2022/08/29 02:46:25;;;;;;;;;;;;;;;-144.99;100.00;52240.19;5012490;28;19942;-73
2022/08/29 02:48:51;;;;;;;;;;;;;;;-144.99;100.00;52232.03;5012740;28;19988;-74
2022/08/29 02:51:20;;;;;;;;;;;;;;;-144.99;100.00;52215.75;5009265;28;20377;-72
2022/08/29 02:53:46;;;;;;;;;;;;;;;-144.99;100.00;52195.34;5010970;28;19926;-73
2022/08/29 02:56:13;;;;;;;;;;;;;;;-144.99;100.00;52248.34;5003110;28;19926;-73
2022/08/29 02:58:39;;;;;;;;;;;;;;;-144.99;100.00;52242.22;5011252;28;19963;-72
2022/08/29 03:01:06;;;;;;;;;;;;;;;-144.99;100.00;52227.97;5011899;28;19926;-72
2022/08/29 03:03:32;;;;;;;;;;;;;;;-144.99;100.00;52260.56;5002438;28;19936;-73
2022/08/29 03:05:59;;;;;;;;;;;;;;;-144.99;100.00;52244.28;5006340;28;20278;-74
2022/08/29 03:08:26;;;;;;;;;;;;;;;-144.99;100.00;52248.34;5011740;28;19930;-75
2022/08/29 03:10:53;;;;;;;;;;;;;;;-144.99;100.00;52193.31;5012074;28;20336;-75
2022/08/29 03:13:19;;;;;;;;;;;;;;;-144.99;100.00;52236.13;5007585;28;19925;-75
2022/08/29 03:15:46;;;;;;;;;;;;;;;-144.99;100.00;52215.75;5002395;28;19937;-75
2022/08/29 03:18:13;;;;;;;;;;;;;;;-144.99;100.00;52268.72;5006197;28;19926;-75
2022/08/29 03:20:40;;;;;;;;;;;;;;;-144.99;100.00;52268.72;5009803;28;19937;-74
2022/08/29 03:23:07;;;;;;;;;;;;;;;-144.99;100.00;52225.94;5008444;28;19925;-74
2022/08/29 03:25:35;;;;;;;;;;;;;;;-144.99;100.00;52227.97;5001547;28;19926;-75
2022/08/29 03:28:01;;;;;;;;;;;;;;;-144.99;100.00;52276.88;5006300;28;19926;-76
2022/08/29 03:30:28;;;;;;;;;;;;;;;-144.99;100.00;52240.19;5010296;28;20504;-75
2022/08/29 03:32:55;;;;;;;;;;;;;;;-144.99;100.00;52256.50;5010706;28;20016;-74
2022/08/29 03:35:22;;;;;;;;;;;;;;;-144.99;100.00;52252.44;5006356;28;20036;-75
2022/08/29 03:37:48;;;;;;;;;;;;;;;-144.99;100.00;52246.31;5009569;28;19980;-75
2022/08/29 03:40:16;;;;;;;;;;;;;;;-144.99;100.00;52248.34;5010660;28;19979;-75
2022/08/29 03:42:44;;;;;;;;;;;;;;;-144.99;100.00;52236.13;5011137;28;19925;-75
2022/08/29 03:45:13;;;;;;;;;;;;;;;-144.99;100.00;52268.72;5003238;28;19930;-76
2022/08/29 03:47:40;;;;;;;;;;;;;;;-144.99;100.00;52270.78;4996494;28;19944;-77
2022/08/29 03:50:07;;;;;;;;;;;;;;;-144.99;100.00;52285.03;5005593;28;19948;-76
2022/08/29 03:52:33;;;;;;;;;;;;;;;-144.99;100.00;52215.75;5001279;28;20037;-76
2022/08/29 03:55:00;;;;;;;;;;;;;;;-144.99;100.00;52276.88;5007316;28;19925;-75
2022/08/29 03:57:27;;;;;;;;;;;;;;;-144.99;100.00;52223.88;4997542;28;19933;-75
2022/08/29 03:59:56;;;;;;;;;;;;;;;-144.99;100.00;52266.69;5007320;28;19925;-76
2022/08/29 04:02:23;;;;;;;;;;;;;;;-144.99;100.00;52240.19;5011012;28;19925;-73
2022/08/29 04:05:07;;;;;;;;;;;;;;;-144.99;100.00;52262.63;5009634;28;19933;-74
2022/08/29 04:07:37;;;;;;;;;;;;;;;-144.99;100.00;52248.34;4998508;28;19925;-74
2022/08/29 04:10:04;;;;;;;;;;;;;;;-144.99;100.00;52256.50;5017790;28;19952;-74
2022/08/29 04:12:30;;;;;;;;;;;;;;;-144.99;100.00;52232.03;5015048;28;20016;-74
2022/08/29 04:14:58;;;;;;;;;;;;;;;-144.99;100.00;52260.56;5015948;28;20004;-74
2022/08/29 04:17:24;;;;;;;;;;;;;;;-144.99;100.00;52230.00;5018381;28;19949;-76
2022/08/29 04:19:51;;;;;;;;;;;;;;;-144.99;100.00;52276.88;5036103;28;20000;-78
2022/08/29 04:22:17;;;;;;;;;;;;;;;-144.99;100.00;52207.59;5029336;28;19961;-77
2022/08/29 04:24:43;;;;;;;;;;;;;;;-144.99;100.00;52246.31;5027263;28;20025;-78
2022/08/29 04:27:10;;;;;;;;;;;;;;;-144.99;100.00;52232.03;5030511;28;19981;-78
2022/08/29 04:29:37;;;;;;;;;;;;;;;-144.99;100.00;52268.72;5029847;28;19952;-80
2022/08/29 04:32:05;;;;;;;;;;;;;;;-144.99;100.00;52248.34;5032689;28;19945;-79
2022/08/29 04:34:31;;;;;;;;;;;;;;;-144.99;100.00;52227.97;5036672;28;19941;-78
2022/08/29 04:36:58;;;;;;;;;;;;;;;-144.99;100.00;52211.66;5031565;28;19925;-78
2022/08/29 04:39:25;;;;;;;;;;;;;;;-144.99;100.00;52232.03;5035035;28;19929;-78
2022/08/29 04:41:51;;;;;;;;;;;;;;;-144.99;100.00;52219.81;5032789;28;20017;-78
2022/08/29 04:44:18;;;;;;;;;;;;;;;-144.99;100.00;52264.66;5020192;28;19925;-77
2022/08/29 04:46:44;;;;;;;;;;;;;;;-144.99;100.00;52268.72;5012789;28;19968;-77
2022/08/29 04:49:12;;;;;;;;;;;;;;;-144.99;100.00;52203.50;5013139;28;19926;-76
2022/08/29 04:51:39;;;;;;;;;;;;;;;-144.99;100.00;52203.50;5010813;28;19932;-76
2022/08/29 04:54:06;;;;;;;;;;;;;;;-144.99;100.00;52207.59;5009319;28;19926;-77
2022/08/29 04:56:34;;;;;;;;;;;;;;;-144.99;100.00;52240.19;5011654;28;19925;-76
2022/08/29 04:59:00;;;;;;;;;;;;;;;-144.99;100.00;52276.88;4664372;28;10000101;-74
2022/08/29 05:01:27;;;;;;;;;;;;;;;-144.99;100.00;52264.66;5001182;28;19933;-75
2022/08/29 05:03:54;;;;;;;;;;;;;;;-144.99;100.00;52223.88;5003602;28;19933;-76
2022/08/29 05:06:22;;;;;;;;;;;;;;;-144.99;100.00;52244.28;5003024;28;19936;-75
2022/08/29 05:08:49;;;;;;;;;;;;;;;-144.99;100.00;52211.66;5006715;28;19952;-77
2022/08/29 05:11:18;;;;;;;;;;;;;;;-144.99;100.00;52256.50;5003371;28;19936;-75
2022/08/29 05:13:45;;;;;;;;;;;;;;;-144.99;100.00;52227.97;5007684;28;19937;-76
2022/08/29 05:16:13;;;;;;;;;;;;;;;-144.99;100.00;52252.44;5006732;28;19929;-76
2022/08/29 05:18:40;;;;;;;;;;;;;;;-144.99;100.00;52236.13;5001445;28;20075;-74
2022/08/29 05:21:07;;;;;;;;;;;;;;;-144.99;100.00;52219.81;4994222;28;19930;-76
2022/08/29 05:23:34;;;;;;;;;;;;;;;-144.99;100.00;52199.44;5008095;28;19929;-78
2022/08/29 05:26:02;;;;;;;;;;;;;;;-144.99;100.00;52244.28;5011181;28;19973;-78
2022/08/29 05:28:29;;;;;;;;;;;;;;;-144.99;100.00;52232.03;5013866;28;20051;-78
2022/08/29 05:30:56;;;;;;;;;;;;;;;-144.99;100.00;52236.13;5005680;28;20012;-77
2022/08/29 05:33:22;;;;;;;;;;;;;;;-144.99;100.00;52262.63;4997249;28;19961;-77
2022/08/29 05:35:49;;;;;;;;;;;;;;;-144.99;100.00;52232.03;5009659;28;19926;-77
2022/08/29 05:38:15;;;;;;;;;;;;;;;-144.99;100.00;52211.66;5010856;28;20648;-78
2022/08/29 05:40:43;;;;;;;;;;;;;;;-144.99;100.00;52207.59;5000431;28;19981;-76
2022/08/29 05:43:10;;;;;;;;;;;;;;;-144.99;100.00;52244.28;5004673;28;20031;-80
2022/08/29 05:45:37;;;;;;;;;;;;;;;-144.99;100.00;52236.13;5000982;28;19937;-78
2022/08/29 05:48:04;;;;;;;;;;;;;;;-144.99;100.00;52227.97;5010730;28;19937;-78
2022/08/29 05:50:31;;;;;;;;;;;;;;;-144.99;100.00;52201.47;5006248;28;19939;-77
2022/08/29 05:52:57;;;;;;;;;;;;;;;-144.99;100.00;52211.66;5001920;28;19936;-77
2022/08/29 05:55:24;;;;;;;;;;;;;;;-144.99;100.00;52191.28;5008785;28;20075;-77
2022/08/29 05:57:53;;;;;;;;;;;;;;;-144.99;99.55;52207.59;5010795;28;19935;-79
2022/08/29 06:00:20;;;;;;;;;;;;;;;-144.99;99.20;52211.66;4999149;28;20424;-79
2022/08/29 06:02:46;;;;;;;;;;;;;;;-144.99;97.90;52211.66;5006630;28;19929;-77
2022/08/29 06:05:13;;;;;;;;;;;;;;;-144.99;96.63;52215.75;5013764;28;19929;-77
2022/08/29 06:07:39;;;;;;;;;;;;;;;-144.99;96.26;52207.59;5014153;28;19985;-78
2022/08/29 06:10:07;;;;;;;;;;;;;;;-144.99;96.09;52213.69;5018807;28;20013;-77
2022/08/29 06:12:34;;;;;;;;;;;;;;;-144.99;95.47;52225.94;5008702;28;19941;-77
2022/08/29 06:15:02;;;;;;;;;;;;;;;-144.99;94.78;52217.78;5023834;28;20020;-79
2022/08/29 06:17:28;;;;;;;;;;;;;;;-144.99;94.00;52207.59;5013246;28;19925;-77
2022/08/29 06:19:55;;;;;;;;;;;;;;;-144.99;93.41;52191.28;5013404;28;19989;-77
2022/08/29 06:22:21;;;;;;;;;;;;;;;-144.99;92.71;52187.19;5008760;28;20421;-77
2022/08/29 06:24:48;;;;;;;;;;;;;;;-144.99;91.96;52215.75;5001967;28;19967;-79
2022/08/29 06:27:14;;;;;;;;;;;;;;;-144.99;90.95;52217.78;5013057;28;19936;-77
2022/08/29 06:29:41;;;;;;;;;;;;;;;-144.99;90.02;52174.97;5016712;28;20017;-78
2022/08/29 06:32:08;;;;;;;;;;;;;;;-144.99;89.00;52199.44;5007571;28;19956;-78
2022/08/29 06:34:35;;;;;;;;;;;;;;;-144.99;87.77;52187.19;5004345;28;19961;-78
2022/08/29 06:37:01;;;;;;;;;;;;;;;-144.99;86.35;52191.28;5015056;28;19925;-79
2022/08/29 06:39:28;;;;;;;;;;;;;;;-144.99;85.93;52207.59;5014178;28;20446;-78
2022/08/29 06:41:54;;;;;;;;;;;;;;;-144.99;85.12;52211.66;5010495;28;20317;-78
2022/08/29 06:44:22;;;;;;;;;;;;;;;-144.99;84.41;52199.44;5001846;28;19992;-78
2022/08/29 06:46:49;;;;;;;;;;;;;;;-144.99;84.58;52215.75;5012437;28;20472;-77
2022/08/29 06:49:18;;;;;;;;;;;;;;;-144.99;84.67;52191.28;5021224;23;19934;-77
2022/08/29 06:51:49;;;;;;;;;;;;;;;-144.99;83.92;52248.34;4631976;28;9999601;-72
2022/08/29 06:54:16;;;;;;;;;;;;;;;-144.99;83.25;52181.09;4987717;28;19934;-77
2022/08/29 06:56:43;;;;;;;;;;;;;;;-144.99;82.04;52197.41;4986001;28;19926;-76
2022/08/29 06:59:10;;;;;;;;;;;;;;;-144.99;81.72;52140.31;4990302;28;20531;-77
2022/08/29 07:01:36;;;;;;;;;;;;;;;-144.99;81.03;52172.94;4989374;28;19934;-74
2022/08/29 07:04:03;;;;;;;;;;;;;;;-144.99;80.15;52205.53;4984243;28;20809;-76
2022/08/29 07:06:31;;;;;;;;;;;;;;;-144.99;79.14;52121.97;4977398;28;19997;-79
2022/08/29 07:08:58;;;;;;;;;;;;;;;-144.99;76.49;52174.97;4987306;28;19933;-76
2022/08/29 07:11:25;;;;;;;;;;;;;;;-144.99;72.84;52134.22;4990611;28;20016;-77
2022/08/29 07:13:52;;;;;;;;;;;;;;;-144.99;70.09;52187.19;4983581;28;20380;-76
2022/08/29 07:16:19;;;;;;;;;;;;;;;-144.99;68.07;52166.81;4981087;28;20024;-75
2022/08/29 07:18:45;;;;;;;;;;;;;;;-144.99;67.64;52174.97;4981177;28;20293;-74
2022/08/29 07:21:13;;;;;;;;;;;;;;;-144.99;67.77;52166.81;4990056;28;19936;-79
2022/08/29 07:23:42;;;;;;;;;;;;;;;-144.99;68.13;52162.75;4988874;28;19941;-81
2022/08/29 07:26:09;;;;;;;;;;;;;;;-144.99;67.46;52158.66;4987469;28;19933;-77
2022/08/29 07:28:35;;;;;;;;;;;;;;;-144.99;66.13;52126.06;4981236;28;19943;-79
2022/08/29 07:31:02;;;;;;;;;;;;;;;-144.99;65.23;52134.22;4981047;28;19926;-79
2022/08/29 07:33:28;;;;;;;;;;;;;;;-144.99;64.29;52160.72;4989222;28;20024;-80
2022/08/29 07:35:55;;;;;;;;;;;;;;;-144.99;63.35;52130.13;4981370;28;19937;-79
2022/08/29 07:38:21;;;;;;;;;;;;;;;-144.99;62.35;52081.22;4985398;28;20356;-79
2022/08/29 07:40:56;;;;;;;;;;;;;;;-144.99;60.33;52130.13;4988348;28;19932;-79
2022/08/29 07:43:23;;;;;;;;;;;;;;;-144.99;59.31;52089.38;4984660;28;19965;-80
2022/08/29 07:45:49;;;;;;;;;;;;;;;-144.99;58.44;52113.84;4981037;28;20485;-79
2022/08/29 07:48:15;;;;;;;;;;;;;;;-144.99;57.78;52126.06;4983232;28;20028;-79
2022/08/29 07:50:42;;;;;;;;;;;;;;;-144.99;57.66;52101.59;4981369;28;19926;-80
2022/08/29 07:53:08;;;;;;;;;;;;;;;-144.99;57.93;52097.53;4984073;28;19933;-79
2022/08/29 07:55:36;;;;;;;;;;;;;;;-144.99;57.91;52115.88;4987097;28;20586;-81
2022/08/29 07:58:04;;;;;;;;;;;;;;;-144.99;57.71;52158.66;4985890;28;20269;-77
2022/08/29 08:00:30;;;;;;;;;;;;;;;-144.99;56.56;52146.44;4980318;28;19961;-79
2022/08/29 08:02:57;;;;;;;;;;;;;;;-144.99;55.95;52097.53;4989761;28;19926;-78
2022/08/29 08:05:24;;;;;;;;;;;;;;;-144.99;55.26;52134.22;4987918;28;19929;-77
2022/08/29 08:07:50;;;;;;;;;;;;;;;-144.99;53.54;52130.13;4986099;28;19937;-77
2022/08/29 08:10:18;;;;;;;;;;;;;;;-144.99;53.37;52154.59;4981379;28;19937;-78
2022/08/29 08:12:45;;;;;;;;;;;;;;;-144.99;54.09;52109.75;4989008;28;19929;-78
2022/08/29 08:15:13;;;;;;;;;;;;;;;-144.99;54.22;52109.75;4991008;28;19933;-79
2022/08/29 08:17:40;;;;;;;;;;;;;;;-144.99;55.07;52130.13;4983516;28;20009;-78
2022/08/29 08:20:07;;;;;;;;;;;;;;;-144.99;54.29;52107.72;4987633;28;20398;-78
2022/08/29 08:22:33;;;;;;;;;;;;;;;-144.99;54.62;52162.75;4996119;28;19929;-78
2022/08/29 08:25:00;;;;;;;;;;;;;;;-144.99;54.75;52162.75;4998733;28;19949;-79
2022/08/29 08:27:26;;;;;;;;;;;;;;;-144.99;54.54;52126.06;5005738;28;19929;-80
2022/08/29 08:29:53;;;;;;;;;;;;;;;-144.99;54.91;52148.47;5015055;28;19929;-78
2022/08/29 08:32:20;;;;;;;;;;;;;;;-144.99;54.70;52134.22;5015020;28;19913;-76
2022/08/29 08:34:47;;;;;;;;;;;;;;;-144.99;55.12;52124.03;5015238;28;19941;-78
2022/08/29 08:37:13;;;;;;;;;;;;;;;-144.99;56.07;52138.28;5012039;28;19930;-80
2022/08/29 08:39:40;;;;;;;;;;;;;;;-144.99;55.92;52158.66;5008481;28;20284;-82
2022/08/29 08:42:12;;;;;;;;;;;;;;;-144.99;56.27;52130.13;5008495;28;19926;-82
2022/08/29 08:44:57;;;;;;;;;;;;;;;-144.99;55.86;52138.28;5006619;28;19924;-82
2022/08/29 08:47:27;;;;;;;;;;;;;;;-144.99;55.26;52121.97;4979151;28;19932;-78
2022/08/29 08:49:56;;;;;;;;;;;;;;;-144.99;55.88;52156.63;4985280;28;20373;-76
2022/08/29 08:52:27;;;;;;;;;;;;;;;-144.99;55.82;52162.75;4984220;28;19926;-78
2022/08/29 08:54:57;;;;;;;;;;;;;;;-144.99;55.60;52158.66;4998612;28;19965;-78
2022/08/29 08:57:25;;;;;;;;;;;;;;;-144.99;55.45;52158.66;4998627;28;20020;-78
2022/08/29 08:59:55;;;;;;;;;;;;;;;-144.99;55.13;52166.81;4991961;28;19989;-78
2022/08/29 09:02:33;;;;;;;;;;;;;;;-144.99;55.58;52130.13;4984801;28;19929;-78
2022/08/29 09:05:06;;;;;;;;;;;;;;;-144.99;55.87;52138.28;4996195;28;19972;-77
2022/08/29 09:07:42;;;;;;;;;;;;;;;-144.99;55.82;52183.13;4988336;28;19933;-77
2022/08/29 09:10:14;;;;;;;;;;;;;;;-144.99;56.07;52170.91;4983327;28;20349;-77
2022/08/29 09:12:45;;;;;;;;;;;;;;;-144.99;56.11;52158.66;4980425;28;19938;-77
2022/08/29 09:15:13;;;;;;;;;;;;;;;-144.99;55.59;52187.19;4993639;28;20012;-75
2022/08/29 09:17:45;;;;;;;;;;;;;;;-144.99;56.04;52134.22;4987883;28;19952;-77
2022/08/29 09:20:14;;;;;;;;;;;;;;;-144.99;55.93;52158.66;4977279;28;19930;-74
2022/08/29 09:22:44;;;;;;;;;;;;;;;-144.99;56.39;52150.53;4979695;28;19933;-76
2022/08/29 09:25:11;;;;;;;;;;;;;;;-144.99;56.49;52134.22;4985860;28;19932;-76
2022/08/29 09:27:38;;;;;;;;;;;;;;;-144.99;56.34;52162.75;4994710;28;20025;-76
2022/08/29 09:30:08;;;;;;;;;;;;;;;-144.99;55.78;52158.66;4977951;28;19930;-77
2022/08/29 09:32:50;;;;;;;;;;;;;;;-144.99;55.16;52150.53;4982529;28;20052;-76
2022/08/29 09:35:23;;;;;;;;;;;;;;;-144.99;55.28;52146.44;4980941;28;19936;-77
2022/08/29 09:37:55;;;;;;;;;;;;;;;-144.99;54.86;52148.47;4979554;28;19930;-76
2022/08/29 09:40:22;;;;;;;;;;;;;;;-144.99;54.39;52113.84;4990199;28;19930;-77
2022/08/29 09:42:51;;;;;;;;;;;;;;;-144.99;54.86;52154.59;4992130;28;20304;-76
2022/08/29 09:45:19;;;;;;;;;;;;;;;-144.99;54.71;52156.63;4987254;28;19934;-76
2022/08/29 09:47:45;;;;;;;;;;;;;;;-144.99;55.15;52193.31;4990711;28;19949;-77
2022/08/29 09:50:12;;;;;;;;;;;;;;;-144.99;55.73;52158.66;4989173;28;20863;-76
2022/08/29 09:52:50;;;;;;;;;;;;;;;-144.99;55.96;52154.59;4993192;28;19926;-77
2022/08/29 09:55:18;;;;;;;;;;;;;;;-144.99;56.11;52179.06;4988373;28;20413;-74
2022/08/29 09:57:49;;;;;;;;;;;;;;;-144.99;55.87;52160.72;4985949;28;20492;-79
2022/08/29 10:00:17;;;;;;;;;;;;;;;-144.99;56.42;52146.44;4978649;28;20427;-76
2022/08/29 10:02:45;;;;;;;;;;;;;;;-144.99;56.95;52150.53;4985572;28;20385;-76
2022/08/29 10:05:26;;;;;;;;;;;;;;;-144.99;57.24;52089.38;4989630;28;19936;-75
2022/08/29 10:07:54;;;;;;;;;;;;;;;-144.99;56.98;52134.22;4985761;28;19930;-77
2022/08/29 10:10:22;;;;;;;;;;;;;;;-144.99;57.12;52199.44;4990533;28;20421;-76
2022/08/29 10:12:51;;;;;;;;;;;;;;;-144.99;57.09;52211.66;4977185;28;19926;-78
2022/08/29 10:15:21;;;;;;;;;;;;;;;-144.99;57.10;52174.97;4989998;28;19940;-78
2022/08/29 10:20:50;;;;;;;;;;;;;;;-144.99;56.86;52191.28;4939725;28;19931;-79
2022/08/29 10:23:24;;;;;;;;;;;;;;;-144.99;56.38;52146.44;4982538;28;20456;-78
2022/08/29 10:25:50;;;;;;;;;;;;;;;-144.99;56.40;52166.81;4987420;28;20024;-78
2022/08/29 10:28:23;;;;;;;;;;;;;;;-144.99;56.14;52146.44;4991890;28;20029;-80
2022/08/29 10:30:52;;;;;;;;;;;;;;;-144.99;56.05;52105.69;4991943;28;20032;-76
2022/08/29 10:33:25;;;;;;;;;;;;;;;-144.99;56.21;52085.31;4992459;28;19925;-79
2022/08/29 10:35:54;;;;;;;;;;;;;;;-144.99;55.48;52115.88;4984401;28;19930;-77
2022/08/29 10:38:29;;;;;;;;;;;;;;;-144.99;53.32;52081.22;4982987;28;19930;-76
2022/08/29 10:40:58;;;;;;;;;;;;;;;-144.99;51.39;52011.94;4986017;28;19957;-77
2022/08/29 10:43:38;;;;;;;;;;;;;;;-144.99;48.78;52040.47;4991716;28;19930;-78
2022/08/29 10:46:13;;;;;;;;;;;;;;;-144.99;48.64;52056.78;4989612;28;19968;-75
2022/08/29 10:48:46;;;;;;;;;;;;;;;-144.99;48.38;52105.69;4986265;28;19929;-79
2022/08/29 10:51:16;;;;;;;;;;;;;;;-144.99;47.71;52062.88;4990819;28;20405;-79
2022/08/29 10:53:47;;;;;;;;;;;;;;;-144.99;47.63;52105.69;4984149;28;19932;-76
2022/08/29 10:56:19;;;;;;;;;;;;;;;-144.99;47.06;52085.31;4989814;28;19934;-77
2022/08/29 10:58:50;;;;;;;;;;;;;;;-144.99;47.19;52113.84;4982442;28;19969;-78
2022/08/29 11:01:21;;;;;;;;;;;;;;;-144.99;47.37;52091.41;4984858;28;20028;-76
2022/08/29 11:03:49;;;;;;;;;;;;;;;-144.99;47.77;52126.06;4984443;28;19926;-78
2022/08/29 11:06:18;;;;;;;;;;;;;;;-144.99;48.15;52130.13;4987291;28;19931;-77
2022/08/29 11:08:49;;;;;;;;;;;;;;;-144.99;48.44;52117.91;4981094;28;20024;-78
2022/08/29 11:11:17;;;;;;;;;;;;;;;-144.99;48.28;52156.63;4986109;28;19949;-77
2022/08/29 11:13:45;;;;;;;;;;;;;;;-144.99;48.81;52121.97;4987600;28;19933;-75
2022/08/29 11:16:15;;;;;;;;;;;;;;;-144.99;49.56;52134.22;4986554;28;19929;-76
2022/08/29 11:18:45;;;;;;;;;;;;;;;-144.99;50.02;52174.97;4979771;28;19930;-77
2022/08/29 11:21:16;;;;;;;;;;;;;;;-144.99;50.37;52201.47;4982576;28;19980;-79
2022/08/29 11:23:45;;;;;;;;;;;;;;;-144.99;50.46;52154.59;5011248;28;19921;-81
2022/08/29 11:26:18;;;;;;;;;;;;;;;-144.99;50.49;52158.66;4997062;28;19934;-78
2022/08/29 11:28:48;;;;;;;;;;;;;;;-144.99;50.50;52142.38;4990171;28;19925;-79
2022/08/29 11:31:19;;;;;;;;;;;;;;;-144.99;50.76;52117.91;4976282;28;19926;-79
2022/08/29 11:33:48;;;;;;;;;;;;;;;-144.99;49.87;52109.75;4984171;28;20021;-78
2022/08/29 11:36:28;;;;;;;;;;;;;;;-144.99;49.33;52085.31;4983089;28;20020;-74
2022/08/29 11:39:28;;;;;;;;;;;;;;;-144.99;49.29;52119.94;4980545;28;19948;-76
2022/08/29 11:41:57;;;;;;;;;;;;;;;-144.99;48.40;52105.69;4928239;29;19930;-76
2022/08/29 11:44:26;;;;;;;;;;;;;;;-144.99;48.34;52134.22;4925429;29;19935;-77
2022/08/29 11:46:53;;;;;;;;;;;;;;;-144.99;47.79;52081.22;4949163;28;19937;-77
2022/08/29 11:49:24;;;;;;;;;;;;;;;-144.99;47.98;52138.28;4978454;28;19930;-76
2022/08/29 11:51:53;;;;;;;;;;;;;;;-144.99;48.15;52146.44;4986596;28;19929;-79
2022/08/29 11:54:38;;;;;;;;;;;;;;;-144.99;48.75;52089.38;4979796;28;19930;-76
2022/08/29 11:57:23;;;;;;;;;;;;;;;-144.99;49.47;52146.44;4981620;28;20536;-78
2022/08/29 11:59:58;;;;;;;;;;;;;;;-144.99;50.04;52158.66;4971632;28;20052;-77
2022/08/29 12:02:40;;;;;;;;;;;;;;;-144.99;50.40;52126.06;4990060;28;19936;-78
2022/08/29 12:05:08;;;;;;;;;;;;;;;-144.99;50.96;52134.22;4982482;28;20065;-78
2022/08/29 12:07:36;;;;;;;;;;;;;;;-144.99;50.51;52132.19;4991604;28;19926;-77
2022/08/29 12:10:05;;;;;;;;;;;;;;;-144.99;49.87;52130.13;4983372;28;19926;-78
2022/08/29 12:12:44;;;;;;;;;;;;;;;-144.99;49.15;52130.13;4987458;28;19965;-80
2022/08/29 12:15:41;;;;;;;;;;;;;;;-144.99;49.71;52130.13;4980737;28;20013;-79
2022/08/29 12:18:22;;;;;;;;;;;;;;;-144.99;50.00;52138.28;4978447;28;20005;-80
2022/08/29 12:20:51;;;;;;;;;;;;;;;-144.99;49.94;52093.44;4985848;28;19937;-78
2022/08/29 12:23:19;;;;;;;;;;;;;;;-144.99;50.14;52138.28;4990842;28;20020;-79
2022/08/29 12:25:46;;;;;;;;;;;;;;;-144.99;50.01;52093.44;4984402;28;19986;-79
2022/08/29 12:28:32;;;;;;;;;;;;;;;-144.99;49.71;52150.53;4983965;28;19937;-77
2022/08/29 12:31:11;;;;;;;;;;;;;;;-144.99;49.85;52140.31;4977234;28;20016;-80
2022/08/29 12:33:45;;;;;;;;;;;;;;;-144.99;49.74;52136.25;4975879;28;19932;-78